sensor_id;sensor_type;location;lat;lon;timestamp;pressure;altitude;pressure_sealevel;temperature;humidity
13124;BME280;6627;50.920;12.050;2023-02-11T00:01:30;100085.88;;;8.03;52.94
13124;BME280;6627;50.920;12.050;2023-02-11T00:03:59;100018.88;;;7.73;52.76
13124;BME280;6627;50.920;12.050;2023-02-11T00:06:29;100129.94;;;8.30;52.91
13124;BME280;6627;50.920;12.050;2023-02-11T00:08:57;100116.94;;;8.49;52.27
13124;BME280;6627;50.920;12.050;2023-02-11T00:11:26;100149.22;;;8.61;52.40
13124;BME280;6627;50.920;12.050;2023-02-11T00:13:56;100058.25;;;7.96;53.37
13124;BME280;6627;50.920;12.050;2023-02-11T00:16:25;100074.22;;;8.19;52.58
13124;BME280;6627;50.920;12.050;2023-02-11T00:18:53;100140.72;;;8.74;51.61
13124;BME280;6627;50.920;12.050;2023-02-11T00:21:24;100159.69;;;8.79;52.10
13124;BME280;6627;50.920;12.050;2023-02-11T00:23:53;100120.63;;;8.65;51.78
13124;BME280;6627;50.920;12.050;2023-02-11T00:26:25;100162.19;;;9.13;50.75
13124;BME280;6627;50.920;12.050;2023-02-11T00:28:53;100161.22;;;8.97;50.91
13124;BME280;6627;50.920;12.050;2023-02-11T00:31:24;100083.13;;;8.42;51.78
13124;BME280;6627;50.920;12.050;2023-02-11T00:33:52;100067.28;;;8.28;52.46
13124;BME280;6627;50.920;12.050;2023-02-11T00:36:22;100060.25;;;8.27;51.80
13124;BME280;6627;50.920;12.050;2023-02-11T00:38:50;100069.38;;;8.43;52.03
13124;BME280;6627;50.920;12.050;2023-02-11T00:41:19;99960.78;;;7.65;52.78
13124;BME280;6627;50.920;12.050;2023-02-11T00:43:47;100029.59;;;8.12;52.45
13124;BME280;6627;50.920;12.050;2023-02-11T00:46:15;99969.34;;;7.57;53.54
13124;BME280;6627;50.920;12.050;2023-02-11T00:48:44;99928.81;;;7.52;53.44
13124;BME280;6627;50.920;12.050;2023-02-11T00:51:11;100003.81;;;7.99;53.23
13124;BME280;6627;50.920;12.050;2023-02-11T00:53:40;99987.81;;;7.92;53.23
13124;BME280;6627;50.920;12.050;2023-02-11T00:56:08;100042.63;;;8.20;53.07
13124;BME280;6627;50.920;12.050;2023-02-11T00:58:36;100037.03;;;8.26;52.76
13124;BME280;6627;50.920;12.050;2023-02-11T01:01:03;100168.13;;;9.15;51.75
13124;BME280;6627;50.920;12.050;2023-02-11T01:03:31;99975.81;;;8.05;52.28
13124;BME280;6627;50.920;12.050;2023-02-11T01:06:00;100056.63;;;8.39;52.58
13124;BME280;6627;50.920;12.050;2023-02-11T01:08:27;100033.84;;;8.29;52.72
13124;BME280;6627;50.920;12.050;2023-02-11T01:10:57;100008.00;;;8.12;52.53
13124;BME280;6627;50.920;12.050;2023-02-11T01:13:26;100088.94;;;8.55;52.44
13124;BME280;6627;50.920;12.050;2023-02-11T01:15:54;100093.63;;;8.65;52.03
13124;BME280;6627;50.920;12.050;2023-02-11T01:18:22;100141.44;;;8.92;52.04
13124;BME280;6627;50.920;12.050;2023-02-11T01:20:50;100075.28;;;8.67;51.82
13124;BME280;6627;50.920;12.050;2023-02-11T01:23:20;100074.28;;;8.46;52.12
13124;BME280;6627;50.920;12.050;2023-02-11T01:25:48;100139.19;;;8.83;52.24
13124;BME280;6627;50.920;12.050;2023-02-11T01:28:16;100132.97;;;9.10;51.02
13124;BME280;6627;50.920;12.050;2023-02-11T01:30:44;100162.75;;;9.15;51.50
13124;BME280;6627;50.920;12.050;2023-02-11T01:33:11;100132.63;;;9.33;50.58
13124;BME280;6627;50.920;12.050;2023-02-11T01:35:41;100090.81;;;9.09;50.44
13124;BME280;6627;50.920;12.050;2023-02-11T01:38:14;100036.19;;;8.75;50.91
13124;BME280;6627;50.920;12.050;2023-02-11T01:40:48;100107.56;;;9.11;51.01
13124;BME280;6627;50.920;12.050;2023-02-11T01:43:15;99874.94;;;8.06;51.45
13124;BME280;6627;50.920;12.050;2023-02-11T01:45:57;100090.88;;;9.19;50.90
13124;BME280;6627;50.920;12.050;2023-02-11T01:48:29;99941.63;;;8.38;51.43
13124;BME280;6627;50.920;12.050;2023-02-11T01:51:03;99959.44;;;8.39;51.69
13124;BME280;6627;50.920;12.050;2023-02-11T01:53:37;99984.59;;;8.44;52.03
13124;BME280;6627;50.920;12.050;2023-02-11T01:56:26;99964.91;;;8.44;51.68
13124;BME280;6627;50.920;12.050;2023-02-11T01:59:18;99983.75;;;8.39;52.38
13124;BME280;6627;50.920;12.050;2023-02-11T02:01:52;99918.88;;;8.01;52.39
13124;BME280;6627;50.920;12.050;2023-02-11T02:04:26;100022.41;;;8.76;51.75
13124;BME280;6627;50.920;12.050;2023-02-11T02:07:02;100046.91;;;8.97;51.44
13124;BME280;6627;50.920;12.050;2023-02-11T02:09:39;99944.50;;;8.31;52.20
13124;BME280;6627;50.920;12.050;2023-02-11T02:12:09;99956.19;;;8.37;52.00
13124;BME280;6627;50.920;12.050;2023-02-11T02:14:38;100000.16;;;8.59;52.30
13124;BME280;6627;50.920;12.050;2023-02-11T02:17:09;100039.38;;;8.99;51.62
13124;BME280;6627;50.920;12.050;2023-02-11T02:20:16;100067.16;;;9.26;51.23
13124;BME280;6627;50.920;12.050;2023-02-11T02:23:17;100001.16;;;9.22;50.58
13124;BME280;6627;50.920;12.050;2023-02-11T02:26:36;99964.22;;;8.96;50.40
13124;BME280;6627;50.920;12.050;2023-02-11T02:32:57;99947.66;;;8.50;51.41
13124;BME280;6627;50.920;12.050;2023-02-11T02:35:39;99995.28;;;8.61;51.70
13124;BME280;6627;50.920;12.050;2023-02-11T02:38:15;99967.44;;;8.28;52.45
13124;BME280;6627;50.920;12.050;2023-02-11T02:40:51;100075.53;;;8.93;51.94
13124;BME280;6627;50.920;12.050;2023-02-11T02:43:22;100064.63;;;9.15;51.34
13124;BME280;6627;50.920;12.050;2023-02-11T02:45:52;100000.00;;;9.08;50.52
13124;BME280;6627;50.920;12.050;2023-02-11T02:48:28;100117.25;;;9.76;50.03
13124;BME280;6627;50.920;12.050;2023-02-11T02:51:14;100106.28;;;9.56;50.30
13124;BME280;6627;50.920;12.050;2023-02-11T02:54:06;99996.59;;;8.86;51.17
13124;BME280;6627;50.920;12.050;2023-02-11T02:56:47;100103.31;;;9.52;50.69
13124;BME280;6627;50.920;12.050;2023-02-11T02:59:43;100023.81;;;9.16;50.79
13124;BME280;6627;50.920;12.050;2023-02-11T03:02:24;100010.91;;;8.86;51.54
13124;BME280;6627;50.920;12.050;2023-02-11T03:05:03;100054.00;;;9.40;50.70
13124;BME280;6627;50.920;12.050;2023-02-11T03:07:40;100020.63;;;9.24;50.72
13124;BME280;6627;50.920;12.050;2023-02-11T03:10:16;100126.00;;;9.94;50.50
13124;BME280;6627;50.920;12.050;2023-02-11T03:12:47;100077.97;;;9.74;50.36
13124;BME280;6627;50.920;12.050;2023-02-11T03:15:18;100011.00;;;9.39;50.30
13124;BME280;6627;50.920;12.050;2023-02-11T03:17:50;100010.16;;;9.38;50.13
13124;BME280;6627;50.920;12.050;2023-02-11T03:20:21;100033.22;;;9.51;50.53
13124;BME280;6627;50.920;12.050;2023-02-11T03:22:56;99979.84;;;9.26;51.03
13124;BME280;6627;50.920;12.050;2023-02-11T03:25:30;100052.25;;;9.61;50.75
13124;BME280;6627;50.920;12.050;2023-02-11T03:28:09;100011.06;;;9.49;50.68
13124;BME280;6627;50.920;12.050;2023-02-11T03:30:46;100051.78;;;9.79;49.87
13124;BME280;6627;50.920;12.050;2023-02-11T03:33:23;100065.94;;;9.92;49.68
13124;BME280;6627;50.920;12.050;2023-02-11T03:35:59;100035.75;;;9.68;49.92
13124;BME280;6627;50.920;12.050;2023-02-11T03:38:33;100127.84;;;10.30;49.39
13124;BME280;6627;50.920;12.050;2023-02-11T03:41:06;100165.94;;;10.76;48.41
13124;BME280;6627;50.920;12.050;2023-02-11T03:43:41;100119.81;;;10.61;47.73
13124;BME280;6627;50.920;12.050;2023-02-11T03:46:11;100128.00;;;10.76;47.84
13124;BME280;6627;50.920;12.050;2023-02-11T03:48:47;100004.25;;;9.99;49.13
13124;BME280;6627;50.920;12.050;2023-02-11T03:51:19;100078.88;;;10.42;49.00
13124;BME280;6627;50.920;12.050;2023-02-11T03:53:52;100050.91;;;10.26;49.54
13124;BME280;6627;50.920;12.050;2023-02-11T03:56:27;100039.63;;;10.50;48.59
13124;BME280;6627;50.920;12.050;2023-02-11T03:58:55;100078.34;;;10.45;49.11
13124;BME280;6627;50.920;12.050;2023-02-11T04:01:23;100108.44;;;10.64;48.82
13124;BME280;6627;50.920;12.050;2023-02-11T04:03:50;100045.56;;;10.52;48.27
13124;BME280;6627;50.920;12.050;2023-02-11T04:06:18;99956.09;;;10.06;48.40
13124;BME280;6627;50.920;12.050;2023-02-11T04:08:46;100036.31;;;10.27;49.02
13124;BME280;6627;50.920;12.050;2023-02-11T04:11:14;100053.66;;;10.37;49.33
13124;BME280;6627;50.920;12.050;2023-02-11T04:13:41;99917.53;;;9.58;49.73
13124;BME280;6627;50.920;12.050;2023-02-11T04:16:09;99866.50;;;9.09;50.46
13124;BME280;6627;50.920;12.050;2023-02-11T04:18:36;99988.38;;;9.55;51.53
13124;BME280;6627;50.920;12.050;2023-02-11T04:21:03;100056.22;;;10.01;50.47
13124;BME280;6627;50.920;12.050;2023-02-11T04:23:32;100012.78;;;9.65;51.67
13124;BME280;6627;50.920;12.050;2023-02-11T04:25:59;99956.47;;;9.57;50.49
13124;BME280;6627;50.920;12.050;2023-02-11T04:28:27;99927.72;;;9.41;50.86
13124;BME280;6627;50.920;12.050;2023-02-11T04:30:55;99989.41;;;9.49;51.93
13124;BME280;6627;50.920;12.050;2023-02-11T04:33:23;99940.63;;;9.28;51.49
13124;BME280;6627;50.920;12.050;2023-02-11T04:35:50;100041.47;;;9.71;51.52
13124;BME280;6627;50.920;12.050;2023-02-11T04:38:18;100003.25;;;9.57;51.25
13124;BME280;6627;50.920;12.050;2023-02-11T04:40:46;99994.72;;;9.33;51.89
13124;BME280;6627;50.920;12.050;2023-02-11T04:43:13;99998.00;;;9.35;52.03
13124;BME280;6627;50.920;12.050;2023-02-11T04:45:40;100147.44;;;10.58;50.02
13124;BME280;6627;50.920;12.050;2023-02-11T04:48:07;100113.28;;;10.57;49.38
13124;BME280;6627;50.920;12.050;2023-02-11T04:50:35;100157.53;;;10.88;48.86
13124;BME280;6627;50.920;12.050;2023-02-11T04:53:02;99999.78;;;9.62;50.97
13124;BME280;6627;50.920;12.050;2023-02-11T04:55:29;99993.59;;;9.72;50.38
13124;BME280;6627;50.920;12.050;2023-02-11T04:57:57;99962.34;;;9.39;51.03
13124;BME280;6627;50.920;12.050;2023-02-11T05:00:24;100074.56;;;9.89;51.32
13124;BME280;6627;50.920;12.050;2023-02-11T05:02:53;100055.53;;;9.73;51.86
13124;BME280;6627;50.920;12.050;2023-02-11T05:05:20;100147.44;;;10.58;50.38
13124;BME280;6627;50.920;12.050;2023-02-11T05:07:48;100055.28;;;10.27;49.69
13124;BME280;6627;50.920;12.050;2023-02-11T05:10:15;100084.84;;;10.49;49.47
13124;BME280;6627;50.920;12.050;2023-02-11T05:12:42;100030.81;;;10.12;49.90
13124;BME280;6627;50.920;12.050;2023-02-11T05:15:11;100016.81;;;9.68;51.18
13124;BME280;6627;50.920;12.050;2023-02-11T05:17:38;100047.84;;;10.13;50.24
13124;BME280;6627;50.920;12.050;2023-02-11T05:20:07;100024.28;;;10.08;49.86
13124;BME280;6627;50.920;12.050;2023-02-11T05:22:34;100042.19;;;10.14;50.17
13124;BME280;6627;50.920;12.050;2023-02-11T05:25:02;99977.06;;;9.68;50.65
13124;BME280;6627;50.920;12.050;2023-02-11T05:27:30;99968.41;;;9.66;50.62
13124;BME280;6627;50.920;12.050;2023-02-11T05:29:57;99968.41;;;9.61;50.59
13124;BME280;6627;50.920;12.050;2023-02-11T05:32:25;100001.69;;;9.72;51.12
13124;BME280;6627;50.920;12.050;2023-02-11T05:34:53;99995.47;;;9.66;51.02
13124;BME280;6627;50.920;12.050;2023-02-11T05:37:20;100057.88;;;10.12;50.50
13124;BME280;6627;50.920;12.050;2023-02-11T05:39:47;100004.72;;;9.85;50.53
13124;BME280;6627;50.920;12.050;2023-02-11T05:42:15;99929.81;;;9.28;51.14
13124;BME280;6627;50.920;12.050;2023-02-11T05:44:42;99966.16;;;9.48;51.02
13124;BME280;6627;50.920;12.050;2023-02-11T05:47:09;100062.75;;;10.05;50.80
13124;BME280;6627;50.920;12.050;2023-02-11T05:49:38;100054.13;;;10.18;49.98
13124;BME280;6627;50.920;12.050;2023-02-11T05:52:05;100065.59;;;10.41;49.69
13124;BME280;6627;50.920;12.050;2023-02-11T05:54:32;100086.19;;;10.52;49.27
13124;BME280;6627;50.920;12.050;2023-02-11T05:57:00;100046.06;;;10.28;49.59
13124;BME280;6627;50.920;12.050;2023-02-11T05:59:27;100053.09;;;10.24;49.90
13124;BME280;6627;50.920;12.050;2023-02-11T06:01:54;100075.78;;;10.18;50.03
13124;BME280;6627;50.920;12.050;2023-02-11T06:04:22;100130.13;;;10.74;48.86
13124;BME280;6627;50.920;12.050;2023-02-11T06:06:50;100068.84;;;10.38;49.32
13124;BME280;6627;50.920;12.050;2023-02-11T06:09:18;100069.81;;;10.21;49.88
13124;BME280;6627;50.920;12.050;2023-02-11T06:11:45;100107.34;;;10.55;49.06
13124;BME280;6627;50.920;12.050;2023-02-11T06:14:12;100106.25;;;10.46;49.49
13124;BME280;6627;50.920;12.050;2023-02-11T06:16:40;100176.28;;;11.00;48.78
13124;BME280;6627;50.920;12.050;2023-02-11T06:19:07;100167.63;;;11.08;48.03
13124;BME280;6627;50.920;12.050;2023-02-11T06:21:35;99973.44;;;10.10;48.85
13124;BME280;6627;50.920;12.050;2023-02-11T06:24:04;100040.66;;;10.28;49.02
13124;BME280;6627;50.920;12.050;2023-02-11T06:26:32;100085.16;;;10.63;48.80
13124;BME280;6627;50.920;12.050;2023-02-11T06:28:59;100087.34;;;10.76;48.34
13124;BME280;6627;50.920;12.050;2023-02-11T06:31:27;100014.38;;;10.29;48.98
13124;BME280;6627;50.920;12.050;2023-02-11T06:33:54;100059.09;;;10.47;48.87
13124;BME280;6627;50.920;12.050;2023-02-11T06:36:22;100001.56;;;10.09;49.21
13124;BME280;6627;50.920;12.050;2023-02-11T06:38:49;100079.69;;;10.53;49.12
13124;BME280;6627;50.920;12.050;2023-02-11T06:41:18;100061.88;;;10.72;48.14
13124;BME280;6627;50.920;12.050;2023-02-11T06:43:46;100070.53;;;10.74;48.48
13124;BME280;6627;50.920;12.050;2023-02-11T06:46:14;99979.38;;;10.07;48.80
13124;BME280;6627;50.920;12.050;2023-02-11T06:48:41;100079.69;;;10.53;49.18
13124;BME280;6627;50.920;12.050;2023-02-11T06:51:10;100043.91;;;10.35;49.30
13124;BME280;6627;50.920;12.050;2023-02-11T06:53:41;99991.31;;;10.21;48.47
13124;BME280;6627;50.920;12.050;2023-02-11T06:56:12;100053.16;;;10.55;48.68
13124;BME280;6627;50.920;12.050;2023-02-11T06:58:41;100100.84;;;10.66;48.85
13124;BME280;6627;50.920;12.050;2023-02-11T07:01:12;99954.97;;;9.92;49.09
13124;BME280;6627;50.920;12.050;2023-02-11T07:03:43;100102.75;;;10.60;49.35
13124;BME280;6627;50.920;12.050;2023-02-11T07:06:14;100005.41;;;10.23;48.95
13124;BME280;6627;50.920;12.050;2023-02-11T07:08:41;99974.22;;;10.05;49.11
13124;BME280;6627;50.920;12.050;2023-02-11T07:11:12;99983.16;;;10.01;49.56
13124;BME280;6627;50.920;12.050;2023-02-11T07:13:42;100074.81;;;10.45;49.51
13124;BME280;6627;50.920;12.050;2023-02-11T07:16:12;100125.31;;;10.92;48.80
13124;BME280;6627;50.920;12.050;2023-02-11T07:18:41;99993.41;;;10.04;49.05
13124;BME280;6627;50.920;12.050;2023-02-11T07:21:12;100099.22;;;10.65;48.71
13124;BME280;6627;50.920;12.050;2023-02-11T07:23:40;100165.47;;;11.41;47.54
13124;BME280;6627;50.920;12.050;2023-02-11T07:26:10;100035.31;;;10.69;47.88
13124;BME280;6627;50.920;12.050;2023-02-11T07:28:42;100116.63;;;10.90;48.07
13124;BME280;6627;50.920;12.050;2023-02-11T07:31:13;100018.75;;;10.45;48.32
13124;BME280;6627;50.920;12.050;2023-02-11T07:34:01;100150.84;;;11.21;47.44
13124;BME280;6627;50.920;12.050;2023-02-11T07:36:30;100065.38;;;10.78;47.87
13124;BME280;6627;50.920;12.050;2023-02-11T07:38:58;100104.19;;;10.94;47.70
13124;BME280;6627;50.920;12.050;2023-02-11T07:41:26;100133.47;;;11.17;47.51
13124;BME280;6627;50.920;12.050;2023-02-11T07:43:55;100097.38;;;10.91;48.13
13124;BME280;6627;50.920;12.050;2023-02-11T07:46:25;100008.97;;;10.39;48.60
13124;BME280;6627;50.920;12.050;2023-02-11T07:48:54;100071.34;;;10.65;48.44
13124;BME280;6627;50.920;12.050;2023-02-11T07:51:24;100068.91;;;10.73;48.36
13124;BME280;6627;50.920;12.050;2023-02-11T07:53:54;100048.28;;;10.57;48.59
13124;BME280;6627;50.920;12.050;2023-02-11T07:56:23;99980.97;;;10.08;48.84
13124;BME280;6627;50.920;12.050;2023-02-11T07:58:52;100112.28;;;10.89;48.70
13124;BME280;6627;50.920;12.050;2023-02-11T08:01:22;100186.09;;;11.57;47.35
13124;BME280;6627;50.920;12.050;2023-02-11T08:03:54;100131.31;;;11.29;47.30
13124;BME280;6627;50.920;12.050;2023-02-11T08:06:23;100068.34;;;10.66;48.52
13124;BME280;6627;50.920;12.050;2023-02-11T08:08:51;100104.19;;;10.99;48.04
13124;BME280;6627;50.920;12.050;2023-02-11T08:11:20;99896.25;;;9.92;48.30
13124;BME280;6627;50.920;12.050;2023-02-11T08:13:48;100010.81;;;10.23;49.35
13124;BME280;6627;50.920;12.050;2023-02-11T08:16:22;100045.03;;;10.50;48.95
13124;BME280;6627;50.920;12.050;2023-02-11T08:18:51;100098.19;;;10.92;48.32
13124;BME280;6627;50.920;12.050;2023-02-11T08:21:20;100179.59;;;11.58;47.36
13124;BME280;6627;50.920;12.050;2023-02-11T08:23:47;100219.22;;;11.90;47.36
13124;BME280;6627;50.920;12.050;2023-02-11T08:26:18;100008.47;;;10.73;47.81
13124;BME280;6627;50.920;12.050;2023-02-11T08:28:48;99999.22;;;10.38;48.57
13124;BME280;6627;50.920;12.050;2023-02-11T08:31:20;100129.09;;;10.80;49.21
13124;BME280;6627;50.920;12.050;2023-02-11T08:33:48;99960.13;;;10.03;49.56
13124;BME280;6627;50.920;12.050;2023-02-11T08:36:19;100096.03;;;10.94;48.42
13124;BME280;6627;50.920;12.050;2023-02-11T08:38:47;100062.09;;;10.66;49.12
13124;BME280;6627;50.920;12.050;2023-02-11T08:41:16;100133.47;;;11.17;48.36
13124;BME280;6627;50.920;12.050;2023-02-11T08:43:44;100054.53;;;10.68;48.69
13124;BME280;6627;50.920;12.050;2023-02-11T08:46:14;100098.72;;;10.89;48.40
13124;BME280;6627;50.920;12.050;2023-02-11T08:48:44;100106.59;;;10.85;48.88
13124;BME280;6627;50.920;12.050;2023-02-11T08:51:15;100093.88;;;10.96;48.51
13124;BME280;6627;50.920;12.050;2023-02-11T08:53:43;100054.72;;;10.30;50.16
13124;BME280;6627;50.920;12.050;2023-02-11T08:56:13;100053.97;;;10.60;49.18
13124;BME280;6627;50.920;12.050;2023-02-11T08:58:42;100096.22;;;10.51;50.52
13124;BME280;6627;50.920;12.050;2023-02-11T09:01:10;100193.66;;;11.14;49.88
13124;BME280;6627;50.920;12.050;2023-02-11T09:03:37;100160.31;;;11.19;48.97
13124;BME280;6627;50.920;12.050;2023-02-11T09:06:08;100135.09;;;11.03;48.86
13124;BME280;6627;50.920;12.050;2023-02-11T09:08:37;100153.50;;;11.06;49.48
13124;BME280;6627;50.920;12.050;2023-02-11T09:11:06;100093.00;;;10.54;50.07
13124;BME280;6627;50.920;12.050;2023-02-11T09:13:33;100126.91;;;10.77;50.19
13124;BME280;6627;50.920;12.050;2023-02-11T09:16:04;100301.19;;;11.81;48.96
13124;BME280;6627;50.920;12.050;2023-02-11T09:18:32;100220.28;;;11.58;48.72
13124;BME280;6627;50.920;12.050;2023-02-11T09:21:07;100229.53;;;11.57;48.49
13124;BME280;6627;50.920;12.050;2023-02-11T09:23:37;100120.38;;;10.63;50.58
13124;BME280;6627;50.920;12.050;2023-02-11T09:26:09;100215.69;;;11.48;49.31
13124;BME280;6627;50.920;12.050;2023-02-11T09:28:37;100258.06;;;11.85;48.76
13124;BME280;6627;50.920;12.050;2023-02-11T09:31:05;100211.59;;;11.46;49.25
13124;BME280;6627;50.920;12.050;2023-02-11T09:33:33;100296.06;;;11.85;49.20
13124;BME280;6627;50.920;12.050;2023-02-11T09:36:01;100151.81;;;10.74;50.83
13124;BME280;6627;50.920;12.050;2023-02-11T09:38:30;100211.00;;;11.08;50.19
13124;BME280;6627;50.920;12.050;2023-02-11T09:40:57;100348.75;;;12.04;49.65
13124;BME280;6627;50.920;12.050;2023-02-11T09:43:35;100283.25;;;11.65;50.03
13124;BME280;6627;50.920;12.050;2023-02-11T09:46:04;100326.47;;;12.33;48.32
13124;BME280;6627;50.920;12.050;2023-02-11T09:48:39;100381.88;;;12.62;48.34
13124;BME280;6627;50.920;12.050;2023-02-11T09:51:18;100215.41;;;11.65;48.96
13124;BME280;6627;50.920;12.050;2023-02-11T09:53:58;100275.72;;;11.82;49.46
13124;BME280;6627;50.920;12.050;2023-02-11T09:56:27;100314.00;;;12.06;49.07
13124;BME280;6627;50.920;12.050;2023-02-11T09:58:54;100289.50;;;11.81;49.57
13124;BME280;6627;50.920;12.050;2023-02-11T10:01:38;100242.00;;;11.68;49.23
13124;BME280;6627;50.920;12.050;2023-02-11T10:04:18;100393.03;;;12.56;49.08
13124;BME280;6627;50.920;12.050;2023-02-11T10:06:53;100416.88;;;13.05;47.83
13124;BME280;6627;50.920;12.050;2023-02-11T10:09:41;100286.00;;;12.21;48.15
13124;BME280;6627;50.920;12.050;2023-02-11T10:12:26;100327.31;;;12.18;49.08
13124;BME280;6627;50.920;12.050;2023-02-11T10:15:16;100337.06;;;12.29;49.00
13124;BME280;6627;50.920;12.050;2023-02-11T10:18:23;100339.25;;;12.22;49.25
13124;BME280;6627;50.920;12.050;2023-02-11T10:21:14;100307.19;;;12.29;48.61
13124;BME280;6627;50.920;12.050;2023-02-11T10:23:52;100365.06;;;12.25;49.74
13124;BME280;6627;50.920;12.050;2023-02-11T10:26:25;100373.47;;;12.54;49.51
13124;BME280;6627;50.920;12.050;2023-02-11T10:28:59;100334.34;;;12.50;49.03
13124;BME280;6627;50.920;12.050;2023-02-11T10:31:39;100344.41;;;12.24;50.31
13124;BME280;6627;50.920;12.050;2023-02-11T10:34:10;100261.56;;;11.80;50.48
13124;BME280;6627;50.920;12.050;2023-02-11T10:36:42;100352.00;;;12.47;49.81
13124;BME280;6627;50.920;12.050;2023-02-11T10:39:14;100276.78;;;12.07;49.96
13124;BME280;6627;50.920;12.050;2023-02-11T10:41:47;100329.72;;;12.25;50.57
13124;BME280;6627;50.920;12.050;2023-02-11T10:44:25;100244.72;;;11.78;50.61
13124;BME280;6627;50.920;12.050;2023-02-11T10:47:10;100354.44;;;12.59;49.61
13124;BME280;6627;50.920;12.050;2023-02-11T10:49:42;100428.78;;;13.19;49.26
13124;BME280;6627;50.920;12.050;2023-02-11T10:52:19;100392.69;;;13.03;49.36
13124;BME280;6627;50.920;12.050;2023-02-11T10:55:03;100371.00;;;12.73;50.08
13124;BME280;6627;50.920;12.050;2023-02-11T10:57:41;100310.97;;;12.38;50.44
13124;BME280;6627;50.920;12.050;2023-02-11T11:00:29;100369.31;;;12.92;50.07
13124;BME280;6627;50.920;12.050;2023-02-11T11:02:59;100370.13;;;12.98;50.16
13124;BME280;6627;50.920;12.050;2023-02-11T11:05:31;100432.06;;;13.21;50.72
13124;BME280;6627;50.920;12.050;2023-02-11T11:08:06;100379.84;;;13.14;50.22
13124;BME280;6627;50.920;12.050;2023-02-11T11:10:41;100402.13;;;13.31;49.93
13124;BME280;6627;50.920;12.050;2023-02-11T11:13:27;100397.75;;;13.41;50.08
13124;BME280;6627;50.920;12.050;2023-02-11T11:16:23;100438.66;;;13.85;49.65
13124;BME280;6627;50.920;12.050;2023-02-11T11:19:14;100475.84;;;14.10;49.09
13124;BME280;6627;50.920;12.050;2023-02-11T11:21:44;100433.00;;;13.71;50.08
13124;BME280;6627;50.920;12.050;2023-02-11T11:24:18;100349.94;;;13.24;49.81
13124;BME280;6627;50.920;12.050;2023-02-11T11:26:51;100390.44;;;13.31;50.54
13124;BME280;6627;50.920;12.050;2023-02-11T11:29:26;100405.31;;;13.54;50.08
13124;BME280;6627;50.920;12.050;2023-02-11T11:31:58;100407.00;;;13.40;50.50
13124;BME280;6627;50.920;12.050;2023-02-11T11:34:31;100458.53;;;13.85;49.94
13124;BME280;6627;50.920;12.050;2023-02-11T11:37:09;100460.38;;;14.00;49.99
13124;BME280;6627;50.920;12.050;2023-02-11T11:39:38;100451.91;;;14.02;49.66
13124;BME280;6627;50.920;12.050;2023-02-11T11:42:25;100425.84;;;13.85;50.11
13124;BME280;6627;50.920;12.050;2023-02-11T11:45:00;100437.19;;;14.03;50.24
13124;BME280;6627;50.920;12.050;2023-02-11T11:47:35;100396.03;;;13.60;50.62
13124;BME280;6627;50.920;12.050;2023-02-11T11:50:30;100411.88;;;13.97;50.04
13124;BME280;6627;50.920;12.050;2023-02-11T11:53:09;100439.75;;;14.28;49.52
13124;BME280;6627;50.920;12.050;2023-02-11T11:55:44;100443.50;;;14.37;49.25
13124;BME280;6627;50.920;12.050;2023-02-11T11:58:18;100424.50;;;14.27;49.27
13124;BME280;6627;50.920;12.050;2023-02-11T12:01:01;100392.00;;;13.97;49.88
13124;BME280;6627;50.920;12.050;2023-02-11T12:04:13;100428.91;;;14.18;49.85
13124;BME280;6627;50.920;12.050;2023-02-11T12:07:01;100438.63;;;14.29;49.47
13124;BME280;6627;50.920;12.050;2023-02-11T12:09:41;100402.94;;;13.92;50.10
13124;BME280;6627;50.920;12.050;2023-02-11T12:12:38;100314.00;;;13.22;50.49
13124;BME280;6627;50.920;12.050;2023-02-11T12:15:27;100409.44;;;13.96;50.11
13124;BME280;6627;50.920;12.050;2023-02-11T12:18:19;100375.28;;;13.69;50.67
13124;BME280;6627;50.920;12.050;2023-02-11T12:21:11;100392.03;;;13.92;50.52
13124;BME280;6627;50.920;12.050;2023-02-11T12:24:11;100399.09;;;13.93;50.54
13124;BME280;6627;50.920;12.050;2023-02-11T12:26:48;100420.66;;;14.28;50.00
13124;BME280;6627;50.920;12.050;2023-02-11T12:29:28;100380.63;;;13.84;50.91
13124;BME280;6627;50.920;12.050;2023-02-11T12:32:15;100511.22;;;14.99;49.43
13124;BME280;6627;50.920;12.050;2023-02-11T12:35:14;100437.91;;;14.58;49.45
13124;BME280;6627;50.920;12.050;2023-02-11T12:38:07;100335.91;;;13.96;49.61
13124;BME280;6627;50.920;12.050;2023-02-11T12:40:44;100405.66;;;14.31;49.60
13124;BME280;6627;50.920;12.050;2023-02-11T12:43:21;100477.72;;;14.93;48.81
13124;BME280;6627;50.920;12.050;2023-02-11T12:46:09;100410.91;;;14.61;48.82
13124;BME280;6627;50.920;12.050;2023-02-11T12:49:17;100372.28;;;14.10;49.82
13124;BME280;6627;50.920;12.050;2023-02-11T12:52:09;100417.94;;;14.68;49.13
13124;BME280;6627;50.920;12.050;2023-02-11T12:54:47;100374.31;;;14.28;49.53
13124;BME280;6627;50.920;12.050;2023-02-11T12:57:22;100506.81;;;15.32;48.60
13124;BME280;6627;50.920;12.050;2023-02-11T13:00:02;100444.06;;;15.03;48.39
13124;BME280;6627;50.920;12.050;2023-02-11T13:02:40;100396.47;;;14.56;48.89
13124;BME280;6627;50.920;12.050;2023-02-11T13:05:23;100320.66;;;13.95;49.75
13124;BME280;6627;50.920;12.050;2023-02-11T13:07:58;100394.91;;;14.45;49.46
13124;BME280;6627;50.920;12.050;2023-02-11T13:10:33;100411.59;;;14.72;48.69
13124;BME280;6627;50.920;12.050;2023-02-11T13:13:13;100407.06;;;14.62;49.02
13124;BME280;6627;50.920;12.050;2023-02-11T13:15:49;100445.66;;;15.04;48.39
13124;BME280;6627;50.920;12.050;2023-02-11T13:18:44;100457.63;;;15.08;48.46
13124;BME280;6627;50.920;12.050;2023-02-11T13:21:40;100466.44;;;15.00;48.70
13124;BME280;6627;50.920;12.050;2023-02-11T13:24:21;100429.03;;;14.76;48.72
13124;BME280;6627;50.920;12.050;2023-02-11T13:27:00;100494.16;;;15.41;48.11
13124;BME280;6627;50.920;12.050;2023-02-11T13:29:41;100494.53;;;15.58;47.56
13124;BME280;6627;50.920;12.050;2023-02-11T13:32:25;100461.16;;;15.37;47.43